Pleasant City, OH (43772)

7:34 PM EST on February 14, 2016 (GMT -0500)
APRSWXNET | | Change Station
CLOSE
Current Station
Personal Weather Station
Location: Buffalo, OH
Elevation: 941 ft
Nearby Weather Stations

Elev 941 ft 39.90 °N, 81.50 °W | Updated 22 minutes ago

Overcast
Overcast
20 °F
Feels Like 20 °F
N
1
Wind Variable Wind from ESE
Gusts 5.0 mph

Today
High -- | Low -- °F
--% Chance of Precip.
Yesterday
High -- | Low -- °F
Precip. -- in
Pressure 30.25 in
Visibility 1.8 miles
Clouds Overcast 2200 ft
Windchill 20 °F
Dew Point 7 °F
Humidity 57%
Rainfall in
Snow Depth Not available.
7:20 AM 6:00 PM
Waxing Crescent, 47% visible
SPECI KZZV 150023Z AUTO 13008KT 1 3/4SM -SN OVC022 M07/M13 A3025 RMK AO2 SNB2354 P0000 T10721133
Pressure 30.25 in
Visibility 1.8 miles
Clouds Overcast 2200 ft
Windchill 20 °F
Dew Point 7 °F
Humidity 57%
Rainfall in
Snow Depth Not available.
7:20 AM 6:00 PM
Waxing Crescent, 47% visible
SPECI KZZV 150023Z AUTO 13008KT 1 3/4SM -SN OVC022 M07/M13 A3025 RMK AO2 SNB2354 P0000 T10721133

10-Day Weather Forecast

Almanac

Astronomy

Feb. 14, 2016 Rise Set
Actual Time
Civil Twilight
Nautical Twilight
Astronomical Twilight
Moon
Length of Visible Light
Length of Day
Tomorrow will be .
, % of the Moon is Illuminated

Today's Extremes

State Highs State Lows

Community

WunderPhotos

Upload Photos

1,892,950 photos uploaded!

WunderBlog® & News

Nearby

Air Quality

  Air Quality AQ Index Pollutant
Not available.

Snow Depth

Station Depth Elevation

Earthquake Activity

City Distance Mag. Time & Date
Minimum magnitude displayed is 2.5.

Coastal Water Temperatures

Place Temperature

Stations

Nearby Weather Stations

Station Location Temp. Windchill Dew Point Humidity Wind Precip. Elev Updated Type
                   

Watches & Warnings

There are currently no watches in effect.